Evergreen Park, Illinois
Current Conditions -  °F | °C
As of 12:53 PM on Thursday 18 Dec 2014 (Local Time) from KMDW Reporting Station
Overcast Overcast  
Wind Chill: 21°   Ceiling: 2300
Heat Index: 28°   Visibility: 10mi
Dew Point: 18°   Wind: 7mph
Humidity: 66%   Direction: 230°SW
Pressure: 30.24"   Gusts: NA
Location:  41.72°N, 87.7°W
Report Text: KMDW 181853Z 23006KT 10SM BKN023 OVC250 M02/M08 A3024 RMK AO2 SLP254 T10221078
Loading
Personal Weather Stations






























Interactive Weather Map New forecast layout! Learn more

10-Day Weather Forecast

Advertisements
Track Severe Weather on mobile